Glencove, Washington
Current Conditions -  °F | °C
As of 2:53 AM on Friday 28 Nov 2014 (Local Time) from KTIW Reporting Station
Broken Clouds Broken Clouds  
Wind Chill: 53°   Ceiling: 3700
Heat Index: 53°   Visibility: 10mi
Dew Point: 49°   Wind: 20mph
Humidity: 86%   Direction: 190°S
Pressure: 29.65"   Gusts: 24mph
Location:  47.2986°N, 122.616°W
Report Text: KTIW 281053Z AUTO 19017G21KT 10SM BKN037 BKN047 12/09 A2965 RMK AO2 SLP040 T01170094 $
Loading
Personal Weather Stations






























Interactive Weather Map New forecast layout! Learn more

10-Day Weather Forecast

Advertisements
Track Severe Weather on mobile